AirNav   SIMCOM
 
 466 users online  

1O1 Grandfield Municipal Airport
Grandfield, Oklahoma, USA


FAA INFORMATION EFFECTIVE 14 SEPTEMBER 2017

Location

FAA Identifier: 1O1
Lat/Long: 34-14-15.3220N / 098-44-31.2330W
34-14.255367N / 098-44.520550W
34.2375894 / -98.7420092
(estimated)
Elevation: 1128 ft. / 344 m (estimated)
Variation: 07E (1985)
From city: 3 miles W of GRANDFIELD, OK
Time zone: UTC -5 (UTC -6 during Standard Time)
Zip code: 73546

Airport Operations

Airport use: Open to the public
Activation date: 06/1944
Control tower: no
ARTCC: FORT WORTH CENTER
FSS: MC ALESTER FLIGHT SERVICE STATION
NOTAMs facility: MLC (NOTAM-D service available)
Attendance: UNATNDD
Wind indicator: lighted
Segmented circle: yes
Lights: ACTVT MIRL RY 17/35 - CTAF.
Beacon: white-green (lighted land airport)
Operates sunset to sunrise.

Airport Communications

CTAF: 122.9
WX ASOS at FDR (14 nm NW): 132.675 (580-335-7591)
WX ASOS at SPS (19 nm SE): PHONE 940-855-9045

Nearby radio navigation aids

VOR radial/distance  VOR name  Freq  Var
SPSr324/16.7WICHITA FALLS VORTAC112.7010E
LAWr217/22.5LAWTON VOR/DME109.4009E
LTSr129/36.6ALTUS VORTAC109.8005E

 
NDB name  Hdg/Dist  Freq  Var  ID
MADISON319/24.329605EICF .. -.-. ..-.
POST209/27.942508EPFL .--. ..-. .-..
SCOTLAND330/30.134405ESKB ... -.- -...
TRAIL198/36.738809EOFZ --- ..-. --..

Airport Services

Fuel available: 100LL
FOR FUEL CALL 580-479-5215 0800-1630 MON-FRI; 580-479-5274 NIGHTS & WKENDS.
Parking: tiedowns
Airframe service: NONE
Powerplant service: NONE
Bottled oxygen: NONE
Bulk oxygen: NONE

Runway Information

Runway 17/35

Dimensions: 3100 x 75 ft. / 945 x 23 m
Surface: asphalt, in good condition
Weight bearing capacity: 
Single wheel: 11.0
Runway edge lights: medium intensity
RUNWAY 17  RUNWAY 35
Latitude: 34-14.619105N34-14.108045N
Longitude: 098-44.315557W098-44.322238W
Elevation: 1126.0 ft.1128.0 ft.
Gradient: 0.4%0.4%
Traffic pattern: leftleft
Runway heading: 174 magnetic, 181 true354 magnetic, 001 true
Markings: basic, in good conditionbasic, in good condition

Runway 8/26

Dimensions: 1540 x 75 ft. / 469 x 23 m
Surface: asphalt, in poor condition
PAVEMENT EXHIBITING SEV CRACKING, RAVELING, AND GEN DETERIORATION.
Runway edge markings: RY 26 MARKINGS SEVERELY FADED.
RUNWAY 8  RUNWAY 26
Latitude: 34-14.612500N34-14.612500N
Longitude: 098-44.671063W098-44.365333W
Elevation: 1128.0 ft.1128.0 ft.
Traffic pattern: leftleft
Runway heading: 083 magnetic, 090 true263 magnetic, 270 true
Markings: basic, in poor conditionbasic, in poor condition

Airport Ownership and Management from official FAA records

Ownership: Publicly-owned
Owner: CITY OF GRANDFIELD
PO BOX 360
GRANDFIELD, OK 73546
Phone 580-479-5215
Manager: RANDY CLARK
223 S. MAIN ST.
GRANDFIELD, OK 73546
Phone 580-479-5215

Airport Operational Statistics

Aircraft based on the field: 8
Single engine airplanes: 8
    
Aircraft operations: avg 38/week *
50% transient general aviation
40% local general aviation
10% military
* for 12-month period ending 23 May 2017

Additional Remarks

TOWER 1073 FT AGL 12,000 FT SSE OF ARPT.
TOWER 1059 FT AGL 8,500 FT SE OF ARPT.

Instrument Procedures

There are no published instrument procedures at 1O1.

Some nearby airports with instrument procedures:

KFDR - Frederick Regional Airport (14 nm NW)
F14 - Wichita Valley Airport (18 nm S)
KSPS - Sheppard Air Force Base/Wichita Falls Municipal Airport (19 nm SE)
KLAW - Lawton-Fort Sill Regional Airport (26 nm NE)
KCWC - Kickapoo Downtown Airport (26 nm SE)
 
Loc | Ops | Rwys | IFR | FBO | Links
Com | Nav | Svcs | Stats | Notes


 
Area around 1O1 (Grandfield Municipal Airport)
 
Road maps at: MapQuest Bing Google
 
Aerial photo
WARNING: Photo may not be current or correct
Aerial photo of 1O1 (Grandfield Municipal Airport)
Photo taken 27-Sep-2008

Do you have a better or more recent aerial photo of Grandfield Municipal Airport that you would like to share? If so, please send us your photo.

 
Sectional chart

 
Airport distance calculator
Flying to Grandfield Municipal Airport? Find the distance to fly.

From to 1O1

Sunrise and sunset
Times for 24-Sep-2017
 Local
(UTC-5)
 Zulu
(UTC)
Morning civil twilight07:0012:00
Sunrise07:2512:25
Sunset19:2900:29
Evening civil twilight19:5400:54

Current date and time
Zulu (UTC)  25-Sep-2017 04:37:06
Local (UTC-5)  24-Sep-2017 23:37:06
 
METAR
KFDR 
14nm NW 
250353Z AUTO 08006KT 10SM BKN065 BKN120 24/21 A2985 RMK AO2 SLP091 T02440211
KSPS 
19nm SE 
250352Z AUTO 13008KT 10SM BKN070 OVC090 26/17 A2986 RMK AO2 SLP098 T02610172
KLAW 
25nm NE 
250353Z AUTO 13007KT 10SM CLR 25/19 A2988 RMK AO2 SLP105 T02500189 $
KCWC 
26nm SE 
250415Z AUTO 16006KT 10SM BKN070 BKN085 26/18 A2990 RMK AO2 T02620180
KF05 
27nm W 
250415Z AUTO 09006KT 10SM SCT065 BKN075 25/18 A2988 RMK AO1 T02450178
TAF
KSPS 
19nm SE 
241720Z 2418/2518 17015G24KT P6SM FEW035 SCT090 SCT250 FM250000 14011KT P6SM BKN150
NOTAMs
Click for the latest NOTAMs
NOTAMs are issued by the DoD/FAA and will open in a separate window not controlled by AirNav.

 

 
 

FBO, Fuel Providers, and Aircraft Ground Support

  
 Business Name 
 
 Contact 
 
 Services / Description 
 
Fuel Prices
 
Comments
  
City of Grandfield 580-479-5215
no information available

If you are affiliated with City of Grandfield and would like to show here your services, contact info, web link, logo, and more, click here
no prices available
 
   write
Update Fuel Prices
 

Would you like to see your business listed on this page?

 If your business provides an interesting product or service to pilots, flight crews, aircraft, or users of the Grandfield Municipal Airport, you should consider listing it here.  To start the listing process, click on the button below
 
Add a business
 

Other Pages about Grandfield Municipal Airport

Update a link
 
Copyright © AirNav, LLC. All rights reserved. Privacy Policy  Contact